aviador You're here:

MMSL Decoded Metar

in
Report Time2017-05-25 00:47:00
UTC Time2017-05-25 01:15:54
Flight Rules vfr VFR
Wind240° at 11 kt
W.Decomp.*RWY 29: 7.1 kt HW 8.4 kt LCW
W.Rank240° ranks 9
Current wind is above 240° avg. (9.5)
Visibility9999 m
Phenomena:N/A
Clouds:N/A
Expected CloudBase > 3,600 ft AGL from Temp-Dew spread
CeilingNone
Temp24°C
Dew Point15°C (57% RH)
AAT21.6°C
QNH1009 hPa
Raw Report
METAR MMSL 250047Z 24011KT 9SM SKC 24/15 A2981=

Extra information for MMSL:More info

Social comments